Main page
METAR-TAF:

METAR-TAF

Airports :

Cardiff Airport

Cardiff, Wales

latitude: 51-24N, longitude: 003-21W, elevation: 67 m

Current weather observation

The report was made 35 minutes ago, at 20:20 UTC
Wind 4 kt from the North, varying between North/Northwest and Northeast
Temperature 16°C
Humidity 72%
Pressure 1022 hPa
Visibility 10 km or more

METAR: EGFF 192020Z AUTO 01004KT 340V050 9999 NCD 16/11 Q1022

Time: 21:55 (20:55 UTC)

Forecast

The report was made 4 hours and 0 minutes ago, at 16:55 UTC
Forecast valid from 19 at 18 UTC to 20 at 18 UTC
Wind 10 kt from the East/Northeast
Visibility 10 km or more
Few clouds at a height of 3500 ft
Probability 40%
from 19 at 18 UTC to 19 at 22 UTC
Wind 3 kt from variable directions
Becoming
from 20 at 09 UTC to 20 at 12 UTC
Wind 3 kt from variable directions
Becoming
from 20 at 12 UTC to 20 at 15 UTC
Wind 10 kt from the West

TAF: EGFF 191655Z 1918/2018 07010KT 9999 FEW035 PROB40 1918/1922 VRB03KT BECMG 2009/2012 VRB03KT BECMG 2012/2015 27010KT

Weather observations and forecasts of more than 4000 airports (METAR and TAF reports).

The available stations are represented by yellow and red dots on the map.

Hover mouse over dot to see the name of the station.

Then click to see weather observations and forecasts.

To change the map : click on the green buttons with a black cross to zoom in, on the green button with a dash to zoom out, or on the green arrows for adjacent maps.


METAR-TAF: